SWR1TX LSZH-EDDH
Flight info
| Callsign | SWR1TX |
|---|---|
| Flight time | 1h 5m |
| Altitude | 36000 |
| Route | DEGES Z1 ETAGO Z3 LBU N851 OSBIT P605 NOLGO NOLGO3P |
| Aircraft | A320/M-SDE3FGHIRWY/LB1 |
Departure
| Time | 2026-05-04 17:04 |
|---|---|
| Airport | Zürich Airport (LSZH) |
Arrival
| Time | 2026-05-04 18:09 |
|---|---|
| Airport | Hamburg Helmut Schmidt Airport (EDDH) |
| Time | Latitude | Longitude | Altitude | Speed | Heading |
|---|---|---|---|---|---|
| 2026-05-04 16:15 | 47.45408 | 8.56061 | 1413 ft | 0 kts | 185° |
| 2026-05-04 16:16 | 47.45410 | 8.56062 | 1413 ft | 0 kts | 185° |
| 2026-05-04 16:40 | 47.45411 | 8.56062 | 1407 ft | 0 kts | 185° |
| 2026-05-04 16:44 | 47.45410 | 8.56062 | 1407 ft | 0 kts | 185° |
| 2026-05-04 16:53 | 47.45428 | 8.56064 | 1414 ft | 4 kts | 179° |
| 2026-05-04 16:54 | 47.45455 | 8.56060 | 1411 ft | 4 kts | 164° |
| 2026-05-04 16:55 | 47.45489 | 8.56020 | 1411 ft | 1 kts | 95° |
| 2026-05-04 16:58 | 47.45488 | 8.56035 | 1410 ft | 5 kts | 96° |
| 2026-05-04 16:59 | 47.45488 | 8.56232 | 1408 ft | 12 kts | 54° |
| 2026-05-04 17:00 | 47.45660 | 8.56272 | 1414 ft | 14 kts | 1° |
| 2026-05-04 17:00 | 47.45926 | 8.56311 | 1413 ft | 13 kts | 6° |
| 2026-05-04 17:01 | 47.46037 | 8.56329 | 1411 ft | 0 kts | 6° |
| 2026-05-04 17:02 | 47.46181 | 8.56353 | 1411 ft | 14 kts | 5° |
| 2026-05-04 17:03 | 47.46274 | 8.56251 | 1406 ft | 27 kts | 319° |
| 2026-05-04 17:03 | 47.46600 | 8.55804 | 1402 ft | 97 kts | 317° |
| 2026-05-04 17:03 | 47.48043 | 8.53866 | 1910 ft | 154 kts | 315° |
| 2026-05-04 17:04 | 47.49678 | 8.51794 | 3272 ft | 156 kts | 326° |
| 2026-05-04 17:04 | 47.51582 | 8.50212 | 4399 ft | 157 kts | 328° |
| 2026-05-04 17:05 | 47.52977 | 8.48267 | 4902 ft | 184 kts | 300° |
| 2026-05-04 17:05 | 47.53451 | 8.44213 | 5460 ft | 221 kts | 256° |
| 2026-05-04 17:06 | 47.51943 | 8.40278 | 6749 ft | 224 kts | 215° |
| 2026-05-04 17:06 | 47.50545 | 8.39326 | 7475 ft | 224 kts | 188° |
| 2026-05-04 17:07 | 47.47514 | 8.41034 | 8348 ft | 270 kts | 128° |
| 2026-05-04 17:07 | 47.46967 | 8.42710 | 8809 ft | 280 kts | 107° |
| 2026-05-04 17:07 | 47.46590 | 8.46593 | 9919 ft | 288 kts | 99° |
| 2026-05-04 17:07 | 47.46384 | 8.49589 | 10409 ft | 305 kts | 98° |
| 2026-05-04 17:08 | 47.46174 | 8.52843 | 10628 ft | 328 kts | 98° |
| 2026-05-04 17:08 | 47.45713 | 8.59844 | 11641 ft | 350 kts | 98° |
| 2026-05-04 17:08 | 47.45467 | 8.63458 | 12336 ft | 355 kts | 98° |
| 2026-05-04 17:09 | 47.45211 | 8.67122 | 13001 ft | 361 kts | 98° |
| 2026-05-04 17:09 | 47.45248 | 8.70836 | 13651 ft | 370 kts | 82° |
| 2026-05-04 17:09 | 47.46108 | 8.74453 | 14236 ft | 379 kts | 61° |
| 2026-05-04 17:10 | 47.50055 | 8.79395 | 15517 ft | 385 kts | 19° |
| 2026-05-04 17:10 | 47.58069 | 8.80196 | 17360 ft | 393 kts | 8° |
| 2026-05-04 17:11 | 47.60768 | 8.80913 | 17987 ft | 396 kts | 9° |
| 2026-05-04 17:11 | 47.63536 | 8.81667 | 18538 ft | 400 kts | 9° |
| 2026-05-04 17:11 | 47.69025 | 8.83165 | 19547 ft | 408 kts | 9° |
| 2026-05-04 17:12 | 47.71832 | 8.83932 | 20021 ft | 413 kts | 9° |
| 2026-05-04 17:12 | 47.77528 | 8.85489 | 21042 ft | 420 kts | 9° |
| 2026-05-04 17:13 | 47.86268 | 8.87893 | 22540 ft | 430 kts | 8° |
| 2026-05-04 17:14 | 47.95208 | 8.90361 | 23888 ft | 440 kts | 8° |
| 2026-05-04 17:14 | 47.98229 | 8.91195 | 24276 ft | 443 kts | 8° |
| 2026-05-04 17:14 | 48.04326 | 8.92879 | 25064 ft | 448 kts | 8° |
| 2026-05-04 17:15 | 48.07407 | 8.93732 | 25417 ft | 451 kts | 8° |
| 2026-05-04 17:15 | 48.13610 | 8.95450 | 26173 ft | 455 kts | 8° |
| 2026-05-04 17:16 | 48.19873 | 8.97198 | 26879 ft | 460 kts | 8° |
| 2026-05-04 17:16 | 48.29386 | 8.99838 | 27847 ft | 467 kts | 8° |
| 2026-05-04 17:17 | 48.32584 | 9.00728 | 28169 ft | 470 kts | 8° |
| 2026-05-04 17:17 | 48.42297 | 9.03452 | 29104 ft | 477 kts | 8° |
| 2026-05-04 17:18 | 48.45575 | 9.04375 | 29378 ft | 479 kts | 8° |
| 2026-05-04 17:18 | 48.52155 | 9.06229 | 29925 ft | 483 kts | 9° |
| 2026-05-04 17:19 | 48.58798 | 9.08106 | 30369 ft | 487 kts | 9° |
| 2026-05-04 17:19 | 48.65472 | 9.09994 | 30851 ft | 488 kts | 9° |
| 2026-05-04 17:20 | 48.72128 | 9.11890 | 31475 ft | 486 kts | 9° |
| 2026-05-04 17:20 | 48.78784 | 9.13791 | 32066 ft | 484 kts | 8° |
| 2026-05-04 17:20 | 48.82071 | 9.14729 | 32369 ft | 483 kts | 8° |
| 2026-05-04 17:21 | 48.88660 | 9.16609 | 32973 ft | 481 kts | 8° |
| 2026-05-04 17:21 | 48.95230 | 9.18495 | 33599 ft | 479 kts | 8° |
| 2026-05-04 17:22 | 48.98504 | 9.19435 | 33930 ft | 478 kts | 8° |
| 2026-05-04 17:22 | 49.01767 | 9.20371 | 34209 ft | 476 kts | 8° |
| 2026-05-04 17:23 | 49.11477 | 9.23165 | 34949 ft | 475 kts | 8° |
| 2026-05-04 17:23 | 49.14757 | 9.24114 | 35180 ft | 474 kts | 8° |
| 2026-05-04 17:23 | 49.21200 | 9.25972 | 35637 ft | 473 kts | 8° |
| 2026-05-04 17:24 | 49.24428 | 9.26922 | 35851 ft | 473 kts | 9° |
| 2026-05-04 17:24 | 49.34103 | 9.30051 | 35983 ft | 473 kts | 9° |
| 2026-05-04 17:25 | 49.37340 | 9.30808 | 35992 ft | 470 kts | 3° |
| 2026-05-04 17:26 | 49.50378 | 9.32756 | 35985 ft | 471 kts | 2° |
| 2026-05-04 17:27 | 49.66685 | 9.35155 | 35995 ft | 471 kts | 2° |
| 2026-05-04 17:27 | 49.73131 | 9.37007 | 35990 ft | 475 kts | 17° |
| 2026-05-04 17:28 | 49.78984 | 9.41766 | 35986 ft | 478 kts | 37° |
| 2026-05-04 17:29 | 49.94300 | 9.61635 | 35965 ft | 478 kts | 39° |
| 2026-05-04 17:31 | 50.07809 | 9.76056 | 35977 ft | 471 kts | 14° |
| 2026-05-04 17:31 | 50.17402 | 9.77266 | 35959 ft | 460 kts | 352° |
| 2026-05-04 17:32 | 50.23796 | 9.76613 | 35971 ft | 461 kts | 352° |
| 2026-05-04 17:33 | 50.36634 | 9.75334 | 35969 ft | 461 kts | 352° |
| 2026-05-04 17:34 | 50.49446 | 9.74037 | 35982 ft | 461 kts | 352° |
| 2026-05-04 17:35 | 50.65582 | 9.74370 | 35973 ft | 465 kts | 358° |
| 2026-05-04 17:36 | 50.72059 | 9.74773 | 35968 ft | 465 kts | 358° |
| 2026-05-04 17:36 | 50.78533 | 9.75127 | 35967 ft | 465 kts | 358° |
| 2026-05-04 17:37 | 50.85003 | 9.75450 | 35971 ft | 465 kts | 358° |
| 2026-05-04 17:37 | 50.91477 | 9.75776 | 35973 ft | 466 kts | 358° |
| 2026-05-04 17:38 | 50.97956 | 9.76131 | 35979 ft | 465 kts | 358° |
| 2026-05-04 17:38 | 51.04430 | 9.76480 | 35977 ft | 465 kts | 358° |
| 2026-05-04 17:39 | 51.14145 | 9.77008 | 35983 ft | 466 kts | 358° |
| 2026-05-04 17:39 | 51.20574 | 9.77351 | 35994 ft | 465 kts | 358° |
| 2026-05-04 17:40 | 51.27050 | 9.77699 | 35982 ft | 465 kts | 358° |
| 2026-05-04 17:40 | 51.33522 | 9.78043 | 35994 ft | 465 kts | 358° |
| 2026-05-04 17:41 | 51.39987 | 9.78472 | 35999 ft | 466 kts | 360° |
| 2026-05-04 17:41 | 51.46463 | 9.79472 | 36008 ft | 468 kts | 2° |
| 2026-05-04 17:42 | 51.52919 | 9.80756 | 35999 ft | 468 kts | 3° |
| 2026-05-04 17:42 | 51.59386 | 9.81966 | 35986 ft | 467 kts | 2° |
| 2026-05-04 17:43 | 51.65852 | 9.83054 | 35997 ft | 467 kts | 1° |
| 2026-05-04 17:43 | 51.72318 | 9.84118 | 35991 ft | 467 kts | 2° |
| 2026-05-04 17:44 | 51.78786 | 9.85222 | 35988 ft | 468 kts | 2° |
| 2026-05-04 17:44 | 51.85256 | 9.86334 | 35987 ft | 468 kts | 2° |
| 2026-05-04 17:45 | 51.91732 | 9.87450 | 35899 ft | 469 kts | 2° |
| 2026-05-04 17:45 | 51.93864 | 9.87819 | 35727 ft | 468 kts | 2° |
| 2026-05-04 17:45 | 51.97118 | 9.88380 | 35473 ft | 468 kts | 1° |
| 2026-05-04 17:46 | 52.00406 | 9.88947 | 35217 ft | 468 kts | 1° |
| 2026-05-04 17:46 | 52.03646 | 9.89505 | 34970 ft | 469 kts | 1° |
| 2026-05-04 17:46 | 52.06893 | 9.90069 | 34729 ft | 469 kts | 1° |
| 2026-05-04 17:46 | 52.10141 | 9.90635 | 33886 ft | 474 kts | 1° |
| 2026-05-04 17:47 | 52.13457 | 9.91210 | 32815 ft | 479 kts | 1° |
| 2026-05-04 17:47 | 52.16773 | 9.91789 | 31906 ft | 479 kts | 1° |
| 2026-05-04 17:47 | 52.20066 | 9.92368 | 31341 ft | 473 kts | 1° |
| 2026-05-04 17:47 | 52.23331 | 9.92942 | 30677 ft | 470 kts | 1° |
| 2026-05-04 17:48 | 52.26570 | 9.93510 | 30030 ft | 467 kts | 1° |
| 2026-05-04 17:48 | 52.29751 | 9.94064 | 29341 ft | 463 kts | 2° |
| 2026-05-04 17:48 | 52.32936 | 9.94622 | 28729 ft | 458 kts | 2° |
| 2026-05-04 17:48 | 52.36085 | 9.95176 | 28124 ft | 454 kts | 1° |
| 2026-05-04 17:49 | 52.39218 | 9.95729 | 27502 ft | 451 kts | 1° |
| 2026-05-04 17:49 | 52.42332 | 9.96276 | 26873 ft | 448 kts | 1° |
| 2026-05-04 17:49 | 52.45422 | 9.96818 | 26268 ft | 445 kts | 2° |
| 2026-05-04 17:49 | 52.48490 | 9.97360 | 25672 ft | 442 kts | 2° |
| 2026-05-04 17:50 | 52.51516 | 9.97900 | 25431 ft | 430 kts | 2° |
| 2026-05-04 17:50 | 52.54437 | 9.98430 | 25334 ft | 416 kts | 2° |
| 2026-05-04 17:50 | 52.57287 | 9.98946 | 24982 ft | 410 kts | 2° |
| 2026-05-04 17:50 | 52.60127 | 9.99455 | 24459 ft | 410 kts | 2° |
| 2026-05-04 17:51 | 52.62963 | 9.99953 | 23941 ft | 409 kts | 2° |
| 2026-05-04 17:51 | 52.65795 | 10.00446 | 23419 ft | 408 kts | 2° |
| 2026-05-04 17:51 | 52.68607 | 10.00937 | 22899 ft | 406 kts | 2° |
| 2026-05-04 17:51 | 52.71401 | 10.01430 | 22422 ft | 402 kts | 2° |
| 2026-05-04 17:52 | 52.74177 | 10.01931 | 21953 ft | 399 kts | 2° |
| 2026-05-04 17:52 | 52.76924 | 10.02427 | 21477 ft | 396 kts | 2° |
| 2026-05-04 17:52 | 52.79651 | 10.02918 | 20995 ft | 393 kts | 2° |
| 2026-05-04 17:52 | 52.82355 | 10.03402 | 20520 ft | 390 kts | 3° |
| 2026-05-04 17:53 | 52.85048 | 10.03883 | 20028 ft | 389 kts | 2° |
| 2026-05-04 17:53 | 52.87722 | 10.04360 | 19544 ft | 387 kts | 2° |
| 2026-05-04 17:53 | 52.90402 | 10.04844 | 19029 ft | 385 kts | 2° |
| 2026-05-04 17:53 | 52.93072 | 10.05328 | 18522 ft | 384 kts | 2° |
| 2026-05-04 17:54 | 52.95687 | 10.05803 | 17995 ft | 382 kts | 3° |
| 2026-05-04 17:54 | 52.98358 | 10.06290 | 17474 ft | 379 kts | 3° |
| 2026-05-04 17:54 | 53.00972 | 10.06768 | 16982 ft | 376 kts | 3° |
| 2026-05-04 17:54 | 53.03528 | 10.07232 | 16502 ft | 373 kts | 3° |
| 2026-05-04 17:55 | 53.06106 | 10.07699 | 16018 ft | 370 kts | 3° |
| 2026-05-04 17:55 | 53.08658 | 10.08159 | 15539 ft | 368 kts | 3° |
| 2026-05-04 17:55 | 53.11202 | 10.08617 | 15061 ft | 366 kts | 3° |
| 2026-05-04 17:55 | 53.13726 | 10.09074 | 14584 ft | 364 kts | 4° |
| 2026-05-04 17:56 | 53.16261 | 10.09537 | 13687 ft | 366 kts | 4° |
| 2026-05-04 17:56 | 53.18777 | 10.09969 | 12989 ft | 355 kts | 3° |
| 2026-05-04 17:56 | 53.21184 | 10.10379 | 12419 ft | 346 kts | 3° |
| 2026-05-04 17:56 | 53.23561 | 10.10784 | 12042 ft | 341 kts | 3° |
| 2026-05-04 17:57 | 53.25910 | 10.11182 | 11614 ft | 338 kts | 3° |
| 2026-05-04 17:57 | 53.28229 | 10.11575 | 11316 ft | 328 kts | 3° |
| 2026-05-04 17:57 | 53.30418 | 10.11954 | 11183 ft | 305 kts | 3° |
| 2026-05-04 17:57 | 53.32471 | 10.12321 | 10899 ft | 290 kts | 3° |
| 2026-05-04 17:58 | 53.34422 | 10.13141 | 10462 ft | 291 kts | 21° |
| 2026-05-04 17:58 | 53.36245 | 10.14591 | 10147 ft | 290 kts | 24° |
| 2026-05-04 17:58 | 53.38049 | 10.16105 | 9832 ft | 288 kts | 24° |
| 2026-05-04 17:58 | 53.39836 | 10.17610 | 9494 ft | 287 kts | 24° |
| 2026-05-04 17:59 | 53.41613 | 10.19105 | 9153 ft | 285 kts | 24° |
| 2026-05-04 17:59 | 53.43385 | 10.20593 | 8786 ft | 283 kts | 24° |
| 2026-05-04 17:59 | 53.46900 | 10.23543 | 8156 ft | 281 kts | 24° |
| 2026-05-04 18:00 | 53.48677 | 10.24747 | 7856 ft | 278 kts | 16° |
| 2026-05-04 18:00 | 53.50535 | 10.25726 | 7553 ft | 276 kts | 14° |
| 2026-05-04 18:00 | 53.52347 | 10.26650 | 7257 ft | 275 kts | 14° |
| 2026-05-04 18:00 | 53.54172 | 10.27571 | 6962 ft | 273 kts | 14° |
| 2026-05-04 18:01 | 53.55989 | 10.28491 | 6642 ft | 271 kts | 14° |
| 2026-05-04 18:01 | 53.57784 | 10.29440 | 6261 ft | 270 kts | 14° |
| 2026-05-04 18:01 | 53.59572 | 10.30407 | 5889 ft | 269 kts | 14° |
| 2026-05-04 18:02 | 53.63107 | 10.32316 | 5090 ft | 263 kts | 14° |
| 2026-05-04 18:02 | 53.64837 | 10.33246 | 4475 ft | 260 kts | 14° |
| 2026-05-04 18:02 | 53.66516 | 10.34134 | 3973 ft | 260 kts | 14° |
| 2026-05-04 18:02 | 53.68269 | 10.34481 | 3663 ft | 251 kts | 351° |
| 2026-05-04 18:03 | 53.69941 | 10.33996 | 3421 ft | 250 kts | 345° |
| 2026-05-04 18:03 | 53.71551 | 10.33406 | 3182 ft | 249 kts | 345° |
| 2026-05-04 18:03 | 53.73240 | 10.32759 | 3026 ft | 248 kts | 345° |
| 2026-05-04 18:03 | 53.74584 | 10.32236 | 3007 ft | 239 kts | 344° |
| 2026-05-04 18:04 | 53.76053 | 10.31278 | 3007 ft | 217 kts | 317° |
| 2026-05-04 18:04 | 53.76862 | 10.29251 | 3011 ft | 207 kts | 281° |
| 2026-05-04 18:04 | 53.75928 | 10.25001 | 3010 ft | 202 kts | 232° |
| 2026-05-04 18:05 | 53.75016 | 10.23191 | 3011 ft | 202 kts | 231° |
| 2026-05-04 18:05 | 53.74115 | 10.21376 | 3009 ft | 201 kts | 232° |
| 2026-05-04 18:05 | 53.73250 | 10.19612 | 2943 ft | 191 kts | 232° |
| 2026-05-04 18:05 | 53.72422 | 10.17922 | 2774 ft | 184 kts | 232° |
| 2026-05-04 18:06 | 53.70823 | 10.14658 | 2282 ft | 178 kts | 233° |
| 2026-05-04 18:06 | 53.70033 | 10.13048 | 2045 ft | 174 kts | 233° |
| 2026-05-04 18:06 | 53.69220 | 10.11389 | 1796 ft | 182 kts | 233° |
| 2026-05-04 18:07 | 53.68462 | 10.09850 | 1576 ft | 162 kts | 233° |
| 2026-05-04 18:07 | 53.67777 | 10.08457 | 1357 ft | 149 kts | 233° |
| 2026-05-04 18:07 | 53.67128 | 10.07138 | 1110 ft | 143 kts | 235° |
| 2026-05-04 18:07 | 53.66507 | 10.05846 | 926 ft | 141 kts | 234° |
| 2026-05-04 18:08 | 53.65894 | 10.04575 | 752 ft | 140 kts | 234° |
| 2026-05-04 18:08 | 53.65255 | 10.03319 | 571 ft | 141 kts | 232° |
| 2026-05-04 18:08 | 53.64633 | 10.02044 | 388 ft | 141 kts | 232° |
| 2026-05-04 18:08 | 53.64013 | 10.00793 | 209 ft | 140 kts | 232° |
| 2026-05-04 18:09 | 53.62888 | 9.98514 | 44 ft | 89 kts | 230° |
| 2026-05-04 18:09 | 53.62469 | 9.97789 | 39 ft | 16 kts | 153° |
| 2026-05-04 18:10 | 53.62428 | 9.97909 | 46 ft | 10 kts | 82° |
| 2026-05-04 18:10 | 53.62445 | 9.98030 | 47 ft | 12 kts | 70° |
| 2026-05-04 18:10 | 53.62491 | 9.98149 | 47 ft | 14 kts | 49° |
| 2026-05-04 18:10 | 53.62553 | 9.98275 | 47 ft | 15 kts | 50° |
| 2026-05-04 18:11 | 53.62624 | 9.98419 | 47 ft | 17 kts | 50° |
| 2026-05-04 18:11 | 53.62709 | 9.98590 | 47 ft | 20 kts | 50° |
| 2026-05-04 18:11 | 53.62795 | 9.98765 | 47 ft | 21 kts | 50° |
| 2026-05-04 18:11 | 53.62882 | 9.98942 | 47 ft | 20 kts | 50° |
| 2026-05-04 18:12 | 53.62967 | 9.99114 | 47 ft | 17 kts | 51° |
| 2026-05-04 18:12 | 53.63037 | 9.99256 | 47 ft | 16 kts | 50° |
| 2026-05-04 18:12 | 53.63077 | 9.99348 | 47 ft | 6 kts | 57° |
| 2026-05-04 18:12 | 53.63104 | 9.99416 | 46 ft | 10 kts | 55° |
| 2026-05-04 18:13 | 53.63151 | 9.99528 | 46 ft | 15 kts | 51° |
| 2026-05-04 18:13 | 53.63217 | 9.99659 | 48 ft | 12 kts | 49° |
| 2026-05-04 18:13 | 53.63099 | 9.99867 | 48 ft | 17 kts | 152° |
| 2026-05-04 18:14 | 53.63000 | 9.99953 | 48 ft | 15 kts | 153° |
| 2026-05-04 18:14 | 53.62915 | 10.00027 | 48 ft | 12 kts | 150° |
| 2026-05-04 18:14 | 53.62928 | 10.00111 | 48 ft | 10 kts | 33° |
| 2026-05-04 18:15 | 53.63092 | 10.00261 | 48 ft | 12 kts | 5° |
| 2026-05-04 18:15 | 53.63112 | 10.00380 | 46 ft | 2 kts | 87° |
| 2026-05-04 18:15 | 53.63112 | 10.00382 | 46 ft | 0 kts | 87° |